SBUG

Rubem Berta Airport

Uruguaiana, Brazil
TAF SBUG 171430Z 1718/1806 02010KT 8000 TSRA BKN010 BKN020 FEW030CB T X19/1718Z TN17/1806Z BECMG 1722/1724 22008KT 9999 NSW BKN020 RMK PDJ
Issued Valid From Valid To
Nov-17 @ 14:30 UTC
(7 hours ago)
Nov-17 @ 18:00 UTC
(4 hours ago)
Nov-18 @ 06:00 UTC
(in 8 hours)
Nov-17 @ 18:00 to Nov-17 @ 22:00
TAF SBUG 171430Z 1718/1806 02010KT 8000 TSRA BKN010 BKN020 FEW030CB T X19/1718Z TN17/1806Z
Wind Visibility Clouds Conditions
20° at 10 knots 7,998 meters
  • Broken at 1,000' AGL
  • Broken at 2,000' AGL
  • Few at 3,000' AGL
  • Thunderstorm
  • Rain
Becoming Nov-17 @ 22:00 to Nov-18 @ 06:00
BECMG 1722/1724 22008KT 9999 NSW BKN020 RMK PDJ
Wind Visibility Clouds Conditions
220° at 8 knots 10,000+ meters
  • Broken at 2,000' AGL
TAF SBUG 171430Z 1718/1806 02010KT 8000 TSRA BKN010 BKN020 FEW030CB T X19/1718Z TN17/1806Z BECMG 1722/1724 22008KT 9999 NSW BKN020 RMK PDJ
Issued Nov-17 @ 14:30 UTC
(7 hours ago)
Valid From Nov-17 @ 18:00 UTC
(4 hours ago)
Valid To Nov-18 @ 06:00 UTC
(in 8 hours)
Nov-17 @ 18:00 - Nov-17 @ 22:00
Wind Visibility
20° at 10 knots 7,998 meters
Clouds
  • Broken at 1,000' AGL
  • Broken at 2,000' AGL
  • Few at 3,000' AGL
Conditions
  • Thunderstorm
  • Rain
Becoming Nov-17 @ 22:00 - Nov-18 @ 06:00
Wind Visibility
220° at 8 knots 10,000+ meters
Clouds
  • Broken at 2,000' AGL
Conditions